createdAt,value
2022-08-01T00:01:18.033Z,89.84
2022-08-01T00:03:45.971Z,90.48
2022-08-01T00:06:13.854Z,90.28
2022-08-01T00:08:41.734Z,90.18
2022-08-01T00:11:10.185Z,89.79
2022-08-01T00:13:39.909Z,89.87
2022-08-01T00:16:08.361Z,89.88
2022-08-01T00:18:36.701Z,89.83
2022-08-01T00:21:05.070Z,89.56
2022-08-01T00:23:32.981Z,89.70
2022-08-01T00:26:01.055Z,89.74
2022-08-01T00:28:29.700Z,89.82
2022-08-01T00:30:58.966Z,89.58
2022-08-01T00:33:26.791Z,89.58
2022-08-01T00:35:54.708Z,89.46
2022-08-01T00:38:22.997Z,89.30
2022-08-01T00:40:51.183Z,89.34
2022-08-01T00:43:19.126Z,89.63
2022-08-01T00:45:47.190Z,89.60
2022-08-01T00:48:16.489Z,89.74
2022-08-01T00:50:44.406Z,90.02
2022-08-01T00:53:18.869Z,89.81
2022-08-01T00:55:47.813Z,89.68
2022-08-01T00:58:16.070Z,89.50
2022-08-01T01:00:52.880Z,89.56
2022-08-01T01:03:58.151Z,89.58
2022-08-01T01:06:29.123Z,89.66
2022-08-01T01:09:08.470Z,89.79
2022-08-01T01:11:45.466Z,89.97
2022-08-01T01:14:23.887Z,90.21
2022-08-01T01:16:52.836Z,90.33
2022-08-01T01:19:27.134Z,90.10
2022-08-01T01:22:23.881Z,90.31
2022-08-01T01:25:09.911Z,89.91
2022-08-01T01:27:59.223Z,90.42
2022-08-01T01:30:31.053Z,90.08
2022-08-01T01:33:03.159Z,90.20
2022-08-01T01:35:36.667Z,90.38
2022-08-01T01:38:13.944Z,90.25
2022-08-01T01:40:44.463Z,90.00
2022-08-01T01:43:14.240Z,90.23
2022-08-01T01:45:45.830Z,90.01
2022-08-01T01:48:17.068Z,89.97
2022-08-01T01:50:47.261Z,89.83
2022-08-01T01:53:17.360Z,90.01
2022-08-01T01:55:49.559Z,89.91
2022-08-01T01:58:20.663Z,90.40
2022-08-01T02:00:51.818Z,90.32
2022-08-01T02:03:21.016Z,90.72
2022-08-01T02:05:50.661Z,90.69
2022-08-01T02:08:19.676Z,90.38
2022-08-01T02:11:02.579Z,90.53
2022-08-01T02:13:31.593Z,90.70
2022-08-01T02:16:00.927Z,90.93
2022-08-01T02:18:29.500Z,91.38
2022-08-01T02:21:00.101Z,91.18
2022-08-01T02:23:33.579Z,91.04
2022-08-01T02:26:10.491Z,91.13
2022-08-01T02:28:45.389Z,91.58
2022-08-01T02:31:20.205Z,91.56
2022-08-01T02:33:55.829Z,92.02
2022-08-01T02:36:31.691Z,91.59
2022-08-01T02:39:03.895Z,91.69
2022-08-01T02:41:33.650Z,91.92
2022-08-01T02:44:05.525Z,91.64
2022-08-01T02:46:38.792Z,91.55
2022-08-01T02:49:10.275Z,91.48
2022-08-01T02:51:39.644Z,91.44
2022-08-01T02:54:10.193Z,91.26
2022-08-01T02:56:38.966Z,91.49
2022-08-01T02:59:10.374Z,91.35
2022-08-01T03:01:44.142Z,91.40
2022-08-01T03:04:12.879Z,91.13
2022-08-01T03:06:42.674Z,91.30
2022-08-01T03:09:14.074Z,91.14
2022-08-01T03:11:46.351Z,91.44
2022-08-01T03:14:16.417Z,90.96
2022-08-01T03:16:47.840Z,90.89
2022-08-01T03:19:18.006Z,90.83
2022-08-01T03:21:47.264Z,91.27
2022-08-01T03:24:16.565Z,91.07
2022-08-01T03:26:46.909Z,91.86
2022-08-01T03:29:19.159Z,91.53
2022-08-01T03:31:51.229Z,91.73
2022-08-01T03:34:22.332Z,91.88
2022-08-01T03:36:53.840Z,91.76
2022-08-01T03:39:27.131Z,91.67
2022-08-01T03:42:00.175Z,91.76
2022-08-01T03:44:34.451Z,92.08
2022-08-01T03:47:09.554Z,91.74
2022-08-01T03:49:42.217Z,91.51
2022-08-01T03:52:11.599Z,91.38
2022-08-01T03:54:46.445Z,91.28
2022-08-01T03:57:35.034Z,91.11
2022-08-01T04:00:07.261Z,91.04
2022-08-01T04:02:37.444Z,90.63
2022-08-01T04:05:06.910Z,90.03
2022-08-01T04:07:36.883Z,90.14
2022-08-01T04:10:05.610Z,90.04
2022-08-01T04:12:34.778Z,90.71
2022-08-01T04:15:02.697Z,90.06
2022-08-01T04:17:30.654Z,90.41
2022-08-01T04:20:00.205Z,90.18
2022-08-01T04:22:28.886Z,89.69
2022-08-01T04:24:59.313Z,89.52
2022-08-01T04:27:49.728Z,89.16
2022-08-01T04:30:22.203Z,89.09
2022-08-01T04:32:51.521Z,89.22
2022-08-01T04:35:23.046Z,89.51
2022-08-01T04:38:13.821Z,89.50
2022-08-01T04:40:43.607Z,89.59
2022-08-01T04:43:11.537Z,89.98
2022-08-01T04:45:41.012Z,89.93
2022-08-01T04:48:09.931Z,89.92
2022-08-01T04:50:39.522Z,89.59
2022-08-01T04:53:07.384Z,89.64
2022-08-01T04:55:35.277Z,89.72
2022-08-01T04:58:04.991Z,89.91
2022-08-01T05:00:35.004Z,90.04
2022-08-01T05:03:02.966Z,89.90
2022-08-01T05:05:31.562Z,90.02
2022-08-01T05:08:01.274Z,90.21
2022-08-01T05:10:29.395Z,90.37
2022-08-01T05:12:57.251Z,90.42
2022-08-01T05:15:25.154Z,90.29
2022-08-01T05:17:53.453Z,90.82
2022-08-01T05:20:21.550Z,90.41
2022-08-01T05:22:49.409Z,90.61
2022-08-01T05:25:20.010Z,90.48
2022-08-01T05:27:50.787Z,90.47
2022-08-01T05:30:19.195Z,90.17
2022-08-01T05:32:47.003Z,90.09
2022-08-01T05:35:14.927Z,90.21
2022-08-01T05:37:42.801Z,90.21
2022-08-01T05:40:11.686Z,90.10
2022-08-01T05:42:40.877Z,90.21
2022-08-01T05:45:09.202Z,89.94
2022-08-01T05:47:37.239Z,90.23
2022-08-01T05:50:11.359Z,90.13
2022-08-01T05:52:39.322Z,89.65
2022-08-01T05:55:08.591Z,89.56
2022-08-01T05:57:36.423Z,89.39
2022-08-01T06:00:10.774Z,89.51
2022-08-01T06:02:42.716Z,89.43
2022-08-01T06:05:13.199Z,89.36
2022-08-01T06:07:42.231Z,89.09
2022-08-01T06:10:11.026Z,89.25
2022-08-01T06:12:39.431Z,89.02
2022-08-01T06:15:10.483Z,88.49
2022-08-01T06:17:38.398Z,88.86
2022-08-01T06:20:07.785Z,88.68
2022-08-01T06:22:35.777Z,88.61
2022-08-01T06:25:03.660Z,88.90
2022-08-01T06:27:31.998Z,88.71
2022-08-01T06:30:01.109Z,88.85
2022-08-01T06:32:30.659Z,88.78
2022-08-01T06:34:58.630Z,88.45
2022-08-01T06:37:31.460Z,88.64
2022-08-01T06:40:02.698Z,88.68
2022-08-01T06:42:32.594Z,87.59
2022-08-01T06:45:00.473Z,87.22
2022-08-01T06:47:28.381Z,87.03
2022-08-01T06:49:57.882Z,86.14
2022-08-01T06:52:25.751Z,85.92
2022-08-01T06:54:55.030Z,86.33
2022-08-01T06:57:22.936Z,85.90
2022-08-01T06:59:51.956Z,86.17
2022-08-01T07:02:22.778Z,86.01
2022-08-01T07:04:50.679Z,84.98
2022-08-01T07:07:20.052Z,84.66
2022-08-01T07:09:48.145Z,83.20
2022-08-01T07:12:16.075Z,82.18
2022-08-01T07:14:43.941Z,80.55
2022-08-01T07:17:11.931Z,80.43
2022-08-01T07:19:40.059Z,80.68
2022-08-01T07:22:08.304Z,80.94
2022-08-01T07:24:40.404Z,80.10
2022-08-01T07:27:24.187Z,80.48
2022-08-01T07:29:54.118Z,80.19
2022-08-01T07:32:21.982Z,80.52
2022-08-01T07:34:49.889Z,80.60
2022-08-01T07:37:17.840Z,79.78
2022-08-01T07:40:08.543Z,78.72
2022-08-01T07:42:36.503Z,79.12
2022-08-01T07:45:04.792Z,78.86
2022-08-01T07:47:32.828Z,77.34
2022-08-01T07:50:05.536Z,77.52
2022-08-01T07:52:33.474Z,77.86
2022-08-01T07:55:01.280Z,78.35
2022-08-01T07:57:30.513Z,78.41
2022-08-01T07:59:58.520Z,78.69
2022-08-01T08:02:26.507Z,77.46
2022-08-01T08:04:54.599Z,76.00
2022-08-01T08:07:22.444Z,75.70
2022-08-01T08:09:51.329Z,75.86
2022-08-01T08:12:28.985Z,75.81
2022-08-01T08:15:01.378Z,75.72
2022-08-01T08:17:29.775Z,75.60
2022-08-01T08:20:05.179Z,75.23
2022-08-01T08:22:37.113Z,75.40
2022-08-01T08:25:05.802Z,75.53
2022-08-01T08:27:37.554Z,75.34
2022-08-01T08:30:09.469Z,74.01
2022-08-01T08:32:37.846Z,73.37
2022-08-01T08:35:07.031Z,72.82
2022-08-01T08:37:38.989Z,70.51
2022-08-01T08:40:16.950Z,69.78
2022-08-01T08:42:47.507Z,70.09
2022-08-01T08:45:16.800Z,68.88
2022-08-01T08:47:47.554Z,68.27
2022-08-01T08:50:15.755Z,68.15
2022-08-01T08:52:46.756Z,66.50
2022-08-01T08:55:15.748Z,66.92
2022-08-01T08:57:45.706Z,65.44
2022-08-01T09:00:17.246Z,64.72
2022-08-01T09:02:46.034Z,65.77
2022-08-01T09:05:19.301Z,66.01
2022-08-01T09:07:48.079Z,64.65
2022-08-01T09:10:16.100Z,64.37
2022-08-01T09:13:06.118Z,60.84
2022-08-01T09:15:43.272Z,61.89
2022-08-01T09:18:11.384Z,63.42
2022-08-01T09:20:39.279Z,61.63
2022-08-01T09:23:07.329Z,60.71
2022-08-01T09:25:53.463Z,59.08
2022-08-01T09:28:30.062Z,60.44
2022-08-01T09:30:59.696Z,61.67
2022-08-01T09:33:27.556Z,61.34
2022-08-01T09:35:57.699Z,61.46
2022-08-01T09:38:28.164Z,62.52
2022-08-01T09:40:58.954Z,62.65
2022-08-01T09:43:29.059Z,62.14
2022-08-01T09:45:58.381Z,61.70
2022-08-01T09:48:30.246Z,61.45
2022-08-01T09:51:04.516Z,60.08
2022-08-01T09:53:52.091Z,58.98
2022-08-01T09:56:22.133Z,60.99
2022-08-01T09:59:02.888Z,59.33
2022-08-01T10:01:44.185Z,60.54
2022-08-01T10:04:15.806Z,58.92
2022-08-01T10:06:46.769Z,59.94
2022-08-01T10:09:16.377Z,58.69
2022-08-01T10:11:45.341Z,58.80
2022-08-01T10:14:18.107Z,59.85
2022-08-01T10:16:53.498Z,59.77
2022-08-01T10:19:25.558Z,59.10
2022-08-01T10:21:59.376Z,60.35
2022-08-01T10:24:30.400Z,61.31
2022-08-01T10:27:08.155Z,61.33
2022-08-01T10:29:46.190Z,61.35
2022-08-01T10:32:16.019Z,61.34
2022-08-01T10:34:45.503Z,59.39
2022-08-01T10:37:15.801Z,58.65
2022-08-01T10:39:44.718Z,57.78
2022-08-01T10:42:15.684Z,56.02
2022-08-01T10:44:48.102Z,56.79
2022-08-01T10:47:23.284Z,56.58
2022-08-01T10:50:04.531Z,56.54
2022-08-01T10:52:35.444Z,57.65
2022-08-01T10:55:10.370Z,58.18
2022-08-01T10:57:52.574Z,58.34
2022-08-01T11:00:22.498Z,59.13
2022-08-01T11:03:01.689Z,58.73
2022-08-01T11:05:35.565Z,58.67
2022-08-01T11:08:05.736Z,59.32
2022-08-01T11:10:39.756Z,59.25
2022-08-01T11:13:09.601Z,58.99
2022-08-01T11:15:37.625Z,59.99
2022-08-01T11:18:33.786Z,58.20
2022-08-01T11:21:58.197Z,59.44
2022-08-01T11:23:55.601Z,57.87
2022-08-01T11:26:29.634Z,58.28
2022-08-01T11:29:22.144Z,57.55
2022-08-01T11:31:53.826Z,58.69
2022-08-01T11:34:21.879Z,58.50
2022-08-01T11:36:59.906Z,58.08
2022-08-01T11:39:28.179Z,57.94
2022-08-01T11:42:17.635Z,57.43
2022-08-01T11:44:52.459Z,56.78
2022-08-01T11:47:21.218Z,55.38
2022-08-01T11:49:56.032Z,55.23
2022-08-01T11:52:30.364Z,53.82
2022-08-01T11:55:00.271Z,54.50
2022-08-01T11:57:33.856Z,54.92
2022-08-01T12:00:15.588Z,54.73
2022-08-01T12:02:45.488Z,55.95
2022-08-01T12:05:17.754Z,55.70
2022-08-01T12:07:51.942Z,54.57
2022-08-01T12:10:22.941Z,55.90
2022-08-01T12:12:55.334Z,53.73
2022-08-01T12:15:25.147Z,55.07
2022-08-01T12:17:59.515Z,53.86
2022-08-01T12:20:31.269Z,55.03
2022-08-01T12:23:02.680Z,54.42
2022-08-01T12:25:30.908Z,54.83
2022-08-01T12:28:02.825Z,54.63
2022-08-01T12:30:36.202Z,53.84
2022-08-01T12:33:05.865Z,53.94
2022-08-01T12:35:35.129Z,52.93
2022-08-01T12:38:06.256Z,52.38
2022-08-01T12:40:36.031Z,53.00
2022-08-01T12:43:06.386Z,52.88
2022-08-01T12:45:36.892Z,53.42
2022-08-01T12:48:12.631Z,52.52
2022-08-01T12:50:43.682Z,52.61
2022-08-01T12:53:16.947Z,53.85
2022-08-01T12:55:59.533Z,52.75
2022-08-01T12:58:34.040Z,52.60
2022-08-01T13:01:06.838Z,51.13
2022-08-01T13:03:34.890Z,52.92
2022-08-01T13:06:03.079Z,53.27
2022-08-01T13:08:34.873Z,53.46
2022-08-01T13:11:03.687Z,54.54
2022-08-01T13:13:40.816Z,53.17
2022-08-01T13:16:16.280Z,53.32
2022-08-01T13:18:59.346Z,52.34
2022-08-01T13:21:28.881Z,53.05
2022-08-01T13:24:06.824Z,51.73
2022-08-01T13:26:46.253Z,52.34
2022-08-01T13:29:17.217Z,53.50
2022-08-01T13:31:46.045Z,53.08
2022-08-01T13:34:14.820Z,53.24
2022-08-01T13:36:49.360Z,53.26
2022-08-01T13:39:35.663Z,53.81
2022-08-01T13:42:03.952Z,54.94
2022-08-01T13:44:32.046Z,54.52
2022-08-01T13:46:59.964Z,55.27
2022-08-01T13:49:37.460Z,54.30
2022-08-01T13:52:08.013Z,54.27
2022-08-01T13:54:37.860Z,54.30
2022-08-01T13:57:05.907Z,54.11
2022-08-01T13:59:33.781Z,54.02
2022-08-01T14:02:01.714Z,54.79
2022-08-01T14:04:29.818Z,54.94
2022-08-01T14:06:57.819Z,54.99
2022-08-01T14:09:32.399Z,55.08
2022-08-01T14:12:02.134Z,54.68
2022-08-01T14:14:31.427Z,54.26
2022-08-01T14:17:02.135Z,53.74
2022-08-01T14:19:38.734Z,53.97
2022-08-01T14:22:07.930Z,54.69
2022-08-01T14:24:36.293Z,54.67
2022-08-01T14:27:08.202Z,54.20
2022-08-01T14:30:03.099Z,54.12
2022-08-01T14:32:28.822Z,54.55
2022-08-01T14:34:57.026Z,54.10
2022-08-01T14:37:29.176Z,54.42
2022-08-01T14:39:59.358Z,55.07
2022-08-01T14:42:28.658Z,54.36
2022-08-01T14:44:58.410Z,54.83
2022-08-01T14:47:26.277Z,54.88
2022-08-01T14:49:54.291Z,54.88
2022-08-01T14:52:22.572Z,54.61
2022-08-01T14:54:50.393Z,54.25
2022-08-01T14:57:20.215Z,54.11
2022-08-01T14:59:49.412Z,53.92
2022-08-01T15:02:18.265Z,53.51
2022-08-01T15:04:47.329Z,53.70
2022-08-01T15:07:15.782Z,53.53
2022-08-01T15:09:44.324Z,54.26
2022-08-01T15:12:12.479Z,52.99
2022-08-01T15:14:58.808Z,53.55
2022-08-01T15:17:31.838Z,53.84
2022-08-01T15:20:01.912Z,53.21
2022-08-01T15:22:30.530Z,52.82
2022-08-01T15:24:59.954Z,52.45
2022-08-01T15:27:28.695Z,52.98
2022-08-01T15:29:57.517Z,53.65
2022-08-01T15:32:27.459Z,52.04
2022-08-01T15:34:55.352Z,51.69
2022-08-01T15:37:23.536Z,52.15
2022-08-01T15:39:56.437Z,52.11
2022-08-01T15:42:26.801Z,52.44
2022-08-01T15:44:55.359Z,51.41
2022-08-01T15:47:24.792Z,51.57
2022-08-01T15:49:54.433Z,50.48
2022-08-01T15:52:23.126Z,50.84
2022-08-01T15:54:59.108Z,51.02
2022-08-01T15:57:26.911Z,51.08
2022-08-01T15:59:54.740Z,50.68
2022-08-01T16:02:22.820Z,51.50
2022-08-01T16:04:51.175Z,51.77
2022-08-01T16:07:20.478Z,52.04
2022-08-01T16:09:48.521Z,52.45
2022-08-01T16:12:16.398Z,52.50
2022-08-01T16:14:44.261Z,52.07
2022-08-01T16:17:12.148Z,52.10
2022-08-01T16:19:40.901Z,52.42
2022-08-01T16:22:09.276Z,52.24
2022-08-01T16:24:38.940Z,50.11
2022-08-01T16:27:07.106Z,51.57
2022-08-01T16:29:35.482Z,51.32
2022-08-01T16:32:05.271Z,51.99
2022-08-01T16:34:36.015Z,51.61
2022-08-01T16:37:07.730Z,51.03
2022-08-01T16:39:36.610Z,50.78
2022-08-01T16:42:06.532Z,50.63
2022-08-01T16:44:34.815Z,50.80
2022-08-01T16:47:03.334Z,50.65
2022-08-01T16:49:32.079Z,50.69
2022-08-01T16:52:00.216Z,51.36
2022-08-01T16:54:28.494Z,51.07
2022-08-01T16:56:57.986Z,50.54
2022-08-01T16:59:41.277Z,50.22
2022-08-01T17:02:10.988Z,49.17
2022-08-01T17:04:39.234Z,50.12
2022-08-01T17:07:07.662Z,49.89
2022-08-01T17:09:38.658Z,49.11
2022-08-01T17:12:11.876Z,47.94
2022-08-01T17:14:41.134Z,48.69
2022-08-01T17:17:09.895Z,49.21
2022-08-01T17:19:38.125Z,49.90
2022-08-01T17:22:06.200Z,50.13
2022-08-01T17:24:34.241Z,50.19
2022-08-01T17:27:02.125Z,50.25
2022-08-01T17:29:43.949Z,50.92
2022-08-01T17:32:14.798Z,50.53
2022-08-01T17:34:43.025Z,51.50
2022-08-01T17:37:11.287Z,51.95
2022-08-01T17:39:40.170Z,51.77
2022-08-01T17:42:08.965Z,51.77
2022-08-01T17:44:36.781Z,51.63
2022-08-01T17:47:05.970Z,52.34
2022-08-01T17:52:29.561Z,51.84
2022-08-01T17:54:58.015Z,52.28
2022-08-01T17:57:26.562Z,52.03
2022-08-01T17:59:54.669Z,51.87
2022-08-01T18:02:22.839Z,52.22
2022-08-01T18:04:52.965Z,51.76
2022-08-01T18:08:00.458Z,52.00
2022-08-01T18:10:11.518Z,52.37
2022-08-01T18:12:39.765Z,51.96
2022-08-01T18:15:08.315Z,52.05
2022-08-01T18:17:36.291Z,52.13
2022-08-01T18:20:06.621Z,52.42
2022-08-01T18:22:34.491Z,53.14
2022-08-01T18:25:08.307Z,53.47
2022-08-01T18:28:16.245Z,53.28
2022-08-01T18:30:24.749Z,53.21
2022-08-01T18:32:52.628Z,53.86
2022-08-01T18:35:22.688Z,53.79
2022-08-01T18:37:58.806Z,54.25
2022-08-01T18:40:26.736Z,54.39
2022-08-01T18:42:54.949Z,54.58
2022-08-01T18:45:22.790Z,53.27
2022-08-01T18:47:55.305Z,54.14
2022-08-01T18:50:26.526Z,54.35
2022-08-01T18:52:54.763Z,54.67
2022-08-01T18:55:22.830Z,55.38
2022-08-01T18:57:50.682Z,56.31
2022-08-01T19:00:18.824Z,56.48
2022-08-01T19:02:46.788Z,56.71
2022-08-01T19:05:14.633Z,56.92
2022-08-01T19:08:06.279Z,56.87
2022-08-01T19:10:31.711Z,57.02
2022-08-01T19:13:00.198Z,57.16
2022-08-01T19:15:28.188Z,57.32
2022-08-01T19:17:58.922Z,57.69
2022-08-01T19:20:27.213Z,58.16
2022-08-01T19:22:56.996Z,57.96
2022-08-01T19:25:24.428Z,58.33
2022-08-01T19:27:53.194Z,58.68
2022-08-01T19:30:21.222Z,58.65
2022-08-01T19:32:49.413Z,58.59
2022-08-01T19:35:17.875Z,58.85
2022-08-01T19:37:47.762Z,59.20
2022-08-01T19:40:26.678Z,59.14
2022-08-01T19:42:57.397Z,59.48
2022-08-01T19:45:29.308Z,59.54
2022-08-01T19:47:58.152Z,59.33
2022-08-01T19:50:27.291Z,59.08
2022-08-01T19:52:57.419Z,59.33
2022-08-01T19:55:28.708Z,59.48
2022-08-01T20:00:48.158Z,59.12
2022-08-01T20:03:19.093Z,59.66
2022-08-01T20:05:47.043Z,59.37
2022-08-01T20:08:17.103Z,59.53
2022-08-01T20:10:47.595Z,59.69
2022-08-01T20:13:15.545Z,59.74
2022-08-01T20:15:44.616Z,59.95
2022-08-01T20:18:12.559Z,60.25
2022-08-01T20:20:40.492Z,60.05
2022-08-01T20:23:18.230Z,60.29
2022-08-01T20:25:50.709Z,60.20
2022-08-01T20:28:24.288Z,60.16
2022-08-01T20:30:55.545Z,60.54
2022-08-01T20:33:23.881Z,60.67
2022-08-01T20:35:54.134Z,61.00
2022-08-01T20:38:23.939Z,61.09
2022-08-01T20:40:54.855Z,61.33
2022-08-01T20:43:23.729Z,61.50
2022-08-01T20:45:52.441Z,61.31
2022-08-01T20:48:20.634Z,61.45
2022-08-01T20:51:07.491Z,61.93
2022-08-01T20:53:40.890Z,61.78
2022-08-01T20:56:18.868Z,61.94
2022-08-01T20:59:07.442Z,61.58
2022-08-01T21:01:40.245Z,61.84
2022-08-01T21:04:23.911Z,61.70
2022-08-01T21:06:57.536Z,61.69
2022-08-01T21:09:26.423Z,61.86
2022-08-01T21:12:03.767Z,62.21
2022-08-01T21:14:47.377Z,62.34
2022-08-01T21:17:20.123Z,62.45
2022-08-01T21:19:54.989Z,62.69
2022-08-01T21:22:37.079Z,63.09
2022-08-01T21:25:09.766Z,63.14
2022-08-01T21:27:41.099Z,63.49
2022-08-01T21:30:12.861Z,63.76
2022-08-01T21:32:43.638Z,64.09
2022-08-01T21:35:16.773Z,64.57
2022-08-01T21:37:52.529Z,64.97
2022-08-01T21:40:23.754Z,64.66
2022-08-01T21:42:54.482Z,65.33
2022-08-01T21:45:25.441Z,65.22
2022-08-01T21:47:54.247Z,65.56
2022-08-01T21:50:22.579Z,65.69
2022-08-01T21:53:04.903Z,66.04
2022-08-01T21:55:38.476Z,66.18
2022-08-01T21:58:33.110Z,66.34
2022-08-01T22:01:07.253Z,66.26
2022-08-01T22:03:45.276Z,66.14
2022-08-01T22:06:14.867Z,66.50
2022-08-01T22:08:49.962Z,66.57
2022-08-01T22:11:22.512Z,66.94
2022-08-01T22:13:55.184Z,66.77
2022-08-01T22:16:23.432Z,66.73
2022-08-01T22:18:52.826Z,66.88
2022-08-01T22:21:21.102Z,66.64
2022-08-01T22:23:51.477Z,66.74
2022-08-01T22:26:19.999Z,66.57
2022-08-01T22:28:51.609Z,66.61
2022-08-01T22:31:23.455Z,66.38
2022-08-01T22:33:51.948Z,66.27
2022-08-01T22:36:21.793Z,66.15
2022-08-01T22:38:50.050Z,66.26
2022-08-01T22:41:19.958Z,65.88
2022-08-01T22:43:54.184Z,66.13
2022-08-01T22:46:29.330Z,65.82
2022-08-01T22:49:09.012Z,65.71
2022-08-01T22:51:54.505Z,65.59
2022-08-01T22:54:29.847Z,65.99
2022-08-01T22:57:00.775Z,66.09
2022-08-01T22:59:42.490Z,66.11
2022-08-01T23:02:16.898Z,65.98
2022-08-01T23:04:47.939Z,66.55
2022-08-01T23:07:21.032Z,66.43
2022-08-01T23:09:54.759Z,66.22
2022-08-01T23:12:25.400Z,66.29
2022-08-01T23:14:55.626Z,66.60
2022-08-01T23:17:26.991Z,66.64
2022-08-01T23:19:57.993Z,66.97
2022-08-01T23:22:30.186Z,67.28
2022-08-01T23:25:03.898Z,66.94
2022-08-01T23:27:55.842Z,67.28
2022-08-01T23:30:24.615Z,67.42
2022-08-01T23:32:53.946Z,67.39
2022-08-01T23:35:22.035Z,67.49
2022-08-01T23:37:51.244Z,67.26
2022-08-01T23:40:19.541Z,67.86
2022-08-01T23:42:47.558Z,67.81
2022-08-01T23:45:16.082Z,67.81
2022-08-01T23:47:44.058Z,68.14
2022-08-01T23:50:14.057Z,68.34
2022-08-01T23:52:48.605Z,68.28
2022-08-01T23:55:18.714Z,68.31
2022-08-01T23:57:46.821Z,68.41
